BAW21B EGLL-KLAX
Flight info
| Callsign | BAW21B |
|---|---|
| Flight time | N/A |
| Altitude | 34000 |
| Route | CPT L9 DIDZA N14 OKTAD DCT MEDOG DCT KRAGY DCT PEMOB DCT VATRY DCT KORAK DCT CON DCT SUNOT/M084F340 DCT 58N020W 59N030W 60N040W 61N050W DCT KETLA/N0487F340 N982A FEDDY/N0492F360 DCT 60N080W 57N090W 53N100W DCT KATEN/N0474F380 DCT BIL DCT PICHO Q842 WINEN/N0473F390 Q73 EEVUN/N0471F380 Q73 HAKMN ANJLL4 |
| Aircraft | B77W/H-SDE1E2E3FGHIJ2J3J4J5M1RWXY/LB1D1 |
Departure
| Time | 2026-05-06 14:30 |
|---|---|
| Airport | London Heathrow Airport (EGLL) |
Arrival
| Time | N/A |
|---|---|
| Airport | Los Angeles International Airport (KLAX) |
| Time | Latitude | Longitude | Altitude | Speed | Heading |
|---|---|---|---|---|---|
| 2026-05-06 13:34 | 51.47397 | -0.47500 | 95 ft | 0 kts | 269° |
| 2026-05-06 14:14 | 51.47397 | -0.47494 | 91 ft | 3 kts | 269° |
| 2026-05-06 14:15 | 51.47398 | -0.47451 | 92 ft | 4 kts | 269° |
| 2026-05-06 14:15 | 51.47398 | -0.47408 | 94 ft | 4 kts | 269° |
| 2026-05-06 14:15 | 51.47399 | -0.47375 | 94 ft | 4 kts | 246° |
| 2026-05-06 14:15 | 51.47414 | -0.47355 | 92 ft | 3 kts | 180° |
| 2026-05-06 14:16 | 51.47439 | -0.47355 | 91 ft | 4 kts | 179° |
| 2026-05-06 14:16 | 51.47449 | -0.47355 | 91 ft | 0 kts | 179° |
| 2026-05-06 14:19 | 51.47448 | -0.47355 | 91 ft | 1 kts | 179° |
| 2026-05-06 14:19 | 51.47423 | -0.47354 | 92 ft | 6 kts | 180° |
| 2026-05-06 14:20 | 51.47362 | -0.47354 | 93 ft | 11 kts | 180° |
| 2026-05-06 14:20 | 51.47279 | -0.47354 | 92 ft | 12 kts | 180° |
| 2026-05-06 14:20 | 51.47195 | -0.47354 | 94 ft | 12 kts | 180° |
| 2026-05-06 14:20 | 51.47110 | -0.47352 | 91 ft | 12 kts | 179° |
| 2026-05-06 14:21 | 51.47026 | -0.47351 | 91 ft | 12 kts | 179° |
| 2026-05-06 14:21 | 51.46942 | -0.47350 | 91 ft | 12 kts | 179° |
| 2026-05-06 14:21 | 51.46857 | -0.47350 | 91 ft | 12 kts | 179° |
| 2026-05-06 14:21 | 51.46784 | -0.47349 | 91 ft | 9 kts | 179° |
| 2026-05-06 14:22 | 51.46747 | -0.47410 | 95 ft | 9 kts | 266° |
| 2026-05-06 14:22 | 51.46745 | -0.47507 | 92 ft | 9 kts | 269° |
| 2026-05-06 14:22 | 51.46745 | -0.47593 | 92 ft | 0 kts | 270° |
| 2026-05-06 14:22 | 51.46745 | -0.47594 | 92 ft | 0 kts | 270° |
| 2026-05-06 14:23 | 51.46745 | -0.47609 | 93 ft | 3 kts | 270° |
| 2026-05-06 14:23 | 51.46745 | -0.47610 | 91 ft | 0 kts | 270° |
| 2026-05-06 14:23 | 51.46745 | -0.47645 | 92 ft | 6 kts | 270° |
| 2026-05-06 14:24 | 51.46745 | -0.47715 | 93 ft | 6 kts | 270° |
| 2026-05-06 14:24 | 51.46744 | -0.47786 | 91 ft | 6 kts | 269° |
| 2026-05-06 14:24 | 51.46744 | -0.47857 | 91 ft | 6 kts | 269° |
| 2026-05-06 14:24 | 51.46743 | -0.47928 | 91 ft | 6 kts | 270° |
| 2026-05-06 14:25 | 51.46743 | -0.47999 | 92 ft | 6 kts | 270° |
| 2026-05-06 14:25 | 51.46743 | -0.48065 | 93 ft | 1 kts | 270° |
| 2026-05-06 14:25 | 51.46743 | -0.48080 | 91 ft | 1 kts | 270° |
| 2026-05-06 14:25 | 51.46743 | -0.48115 | 92 ft | 7 kts | 270° |
| 2026-05-06 14:26 | 51.46743 | -0.48221 | 91 ft | 10 kts | 270° |
| 2026-05-06 14:26 | 51.46743 | -0.48297 | 91 ft | 10 kts | 269° |
| 2026-05-06 14:26 | 51.46742 | -0.48409 | 91 ft | 10 kts | 270° |
| 2026-05-06 14:26 | 51.46742 | -0.48521 | 91 ft | 10 kts | 270° |
| 2026-05-06 14:27 | 51.46742 | -0.48633 | 91 ft | 10 kts | 270° |
| 2026-05-06 14:27 | 51.46727 | -0.48722 | 96 ft | 9 kts | 226° |
| 2026-05-06 14:27 | 51.46670 | -0.48745 | 94 ft | 8 kts | 184° |
| 2026-05-06 14:27 | 51.46637 | -0.48751 | 92 ft | 0 kts | 193° |
| 2026-05-06 14:28 | 51.46600 | -0.48767 | 94 ft | 10 kts | 196° |
| 2026-05-06 14:28 | 51.46533 | -0.48785 | 92 ft | 10 kts | 175° |
| 2026-05-06 14:28 | 51.46484 | -0.48720 | 95 ft | 10 kts | 110° |
| 2026-05-06 14:29 | 51.46479 | -0.48552 | 91 ft | 28 kts | 90° |
| 2026-05-06 14:29 | 51.46481 | -0.47876 | 91 ft | 96 kts | 89° |
| 2026-05-06 14:29 | 51.46486 | -0.46434 | 96 ft | 159 kts | 89° |
| 2026-05-06 14:29 | 51.46491 | -0.44407 | 183 ft | 193 kts | 87° |
| 2026-05-06 14:30 | 51.46484 | -0.42269 | 807 ft | 193 kts | 82° |
| 2026-05-06 14:30 | 51.46708 | -0.40111 | 1157 ft | 205 kts | 91° |
| 2026-05-06 14:30 | 51.46100 | -0.38015 | 1629 ft | 213 kts | 126° |
| 2026-05-06 14:30 | 51.44975 | -0.36327 | 1922 ft | 236 kts | 149° |
| 2026-05-06 14:31 | 51.43348 | -0.35567 | 2167 ft | 257 kts | 179° |
| 2026-05-06 14:31 | 51.41559 | -0.36154 | 2574 ft | 267 kts | 205° |
| 2026-05-06 14:31 | 51.39879 | -0.37463 | 3143 ft | 272 kts | 207° |
| 2026-05-06 14:31 | 51.38202 | -0.38886 | 3855 ft | 273 kts | 211° |
| 2026-05-06 14:32 | 51.36530 | -0.40419 | 4409 ft | 282 kts | 210° |
| 2026-05-06 14:32 | 51.34852 | -0.41913 | 5262 ft | 279 kts | 211° |
| 2026-05-06 14:32 | 51.33133 | -0.43435 | 5909 ft | 285 kts | 211° |
| 2026-05-06 14:32 | 51.31406 | -0.44984 | 6615 ft | 285 kts | 212° |
| 2026-05-06 14:33 | 51.29663 | -0.46515 | 7201 ft | 287 kts | 213° |
| 2026-05-06 14:33 | 51.28013 | -0.48291 | 7728 ft | 288 kts | 227° |
| 2026-05-06 14:33 | 51.26897 | -0.50901 | 8359 ft | 284 kts | 253° |
| 2026-05-06 14:33 | 51.26623 | -0.53974 | 9034 ft | 279 kts | 279° |
| 2026-05-06 14:34 | 51.27019 | -0.57005 | 9678 ft | 280 kts | 288° |
| 2026-05-06 14:34 | 51.27605 | -0.60010 | 10191 ft | 288 kts | 290° |
| 2026-05-06 14:34 | 51.28265 | -0.63133 | 10420 ft | 308 kts | 290° |
| 2026-05-06 14:34 | 51.28992 | -0.66477 | 10594 ft | 329 kts | 290° |
| 2026-05-06 14:35 | 51.29774 | -0.70045 | 10822 ft | 349 kts | 290° |
| 2026-05-06 14:35 | 51.30592 | -0.73756 | 11340 ft | 360 kts | 290° |
| 2026-05-06 14:35 | 51.31507 | -0.77545 | 11918 ft | 369 kts | 296° |
| 2026-05-06 14:35 | 51.32795 | -0.81122 | 12700 ft | 372 kts | 303° |
| 2026-05-06 14:36 | 51.34247 | -0.84558 | 13514 ft | 372 kts | 305° |
| 2026-05-06 14:36 | 51.35717 | -0.88007 | 14101 ft | 380 kts | 303° |
| 2026-05-06 14:36 | 51.37155 | -0.91574 | 14808 ft | 382 kts | 302° |
| 2026-05-06 14:36 | 51.38587 | -0.95180 | 15546 ft | 386 kts | 302° |
| 2026-05-06 14:37 | 51.40012 | -0.98775 | 16274 ft | 389 kts | 302° |
| 2026-05-06 14:37 | 51.41467 | -1.02449 | 17006 ft | 393 kts | 302° |
| 2026-05-06 14:37 | 51.42942 | -1.06172 | 17729 ft | 397 kts | 302° |
| 2026-05-06 14:37 | 51.44430 | -1.09928 | 18413 ft | 401 kts | 302° |
| 2026-05-06 14:38 | 51.45935 | -1.13731 | 19032 ft | 405 kts | 302° |
| 2026-05-06 14:38 | 51.47450 | -1.17561 | 19659 ft | 409 kts | 302° |
| 2026-05-06 14:38 | 51.49091 | -1.21309 | 20271 ft | 412 kts | 307° |
| 2026-05-06 14:38 | 51.50982 | -1.24798 | 20885 ft | 417 kts | 314° |
| 2026-05-06 14:39 | 51.53114 | -1.27989 | 21533 ft | 419 kts | 316° |
| 2026-05-06 14:39 | 51.55278 | -1.31167 | 22081 ft | 424 kts | 315° |
| 2026-05-06 14:39 | 51.57448 | -1.34416 | 22629 ft | 428 kts | 315° |
| 2026-05-06 14:39 | 51.59527 | -1.37851 | 23172 ft | 431 kts | 309° |
| 2026-05-06 14:40 | 51.61342 | -1.41627 | 23714 ft | 433 kts | 303° |
| 2026-05-06 14:40 | 51.62945 | -1.45734 | 24165 ft | 435 kts | 297° |
| 2026-05-06 14:40 | 51.64347 | -1.50067 | 24661 ft | 437 kts | 296° |
| 2026-05-06 14:40 | 51.65749 | -1.54430 | 25123 ft | 440 kts | 296° |
| 2026-05-06 14:41 | 51.67179 | -1.58808 | 25550 ft | 443 kts | 296° |
| 2026-05-06 14:41 | 51.68606 | -1.63227 | 25966 ft | 446 kts | 294° |
| 2026-05-06 14:41 | 51.69761 | -1.67873 | 26410 ft | 448 kts | 287° |
| 2026-05-06 14:41 | 51.70604 | -1.72726 | 26840 ft | 450 kts | 282° |
| 2026-05-06 14:42 | 51.71319 | -1.77656 | 27242 ft | 453 kts | 282° |
| 2026-05-06 14:42 | 51.72028 | -1.82620 | 27652 ft | 456 kts | 282° |
| 2026-05-06 14:42 | 51.72735 | -1.87619 | 28041 ft | 458 kts | 282° |
| 2026-05-06 14:42 | 51.73443 | -1.92648 | 28422 ft | 461 kts | 282° |
| 2026-05-06 14:43 | 51.74155 | -1.97714 | 28786 ft | 463 kts | 282° |
| 2026-05-06 14:43 | 51.74867 | -2.02787 | 29164 ft | 465 kts | 282° |
| 2026-05-06 14:43 | 51.75573 | -2.07833 | 29502 ft | 467 kts | 282° |
| 2026-05-06 14:43 | 51.76290 | -2.12960 | 29897 ft | 468 kts | 282° |
| 2026-05-06 14:44 | 51.77007 | -2.18106 | 30010 ft | 472 kts | 282° |
| 2026-05-06 14:44 | 51.77725 | -2.23270 | 30016 ft | 470 kts | 282° |
| 2026-05-06 14:45 | 51.79840 | -2.38580 | 30018 ft | 462 kts | 281° |
| 2026-05-06 14:45 | 51.81224 | -2.48698 | 30015 ft | 460 kts | 281° |
| 2026-05-06 14:46 | 51.82596 | -2.58793 | 30006 ft | 459 kts | 281° |
| 2026-05-06 14:46 | 51.83951 | -2.68835 | 30005 ft | 460 kts | 281° |
| 2026-05-06 14:47 | 51.85308 | -2.78964 | 29989 ft | 461 kts | 281° |
| 2026-05-06 14:47 | 51.86660 | -2.89118 | 30051 ft | 462 kts | 281° |
| 2026-05-06 14:48 | 51.88004 | -2.99292 | 30039 ft | 463 kts | 281° |
| 2026-05-06 14:48 | 51.89342 | -3.09485 | 30037 ft | 463 kts | 281° |
| 2026-05-06 14:49 | 51.90672 | -3.19693 | 30032 ft | 462 kts | 281° |
| 2026-05-06 14:49 | 51.91991 | -3.29894 | 30015 ft | 462 kts | 281° |
| 2026-05-06 14:50 | 51.93300 | -3.40089 | 29991 ft | 462 kts | 281° |
| 2026-05-06 14:50 | 51.94652 | -3.50239 | 29987 ft | 459 kts | 282° |
| 2026-05-06 14:51 | 51.95947 | -3.60309 | 30009 ft | 460 kts | 280° |
| 2026-05-06 14:51 | 51.97169 | -3.70496 | 30011 ft | 461 kts | 280° |
| 2026-05-06 14:52 | 51.98418 | -3.80718 | 30002 ft | 462 kts | 281° |
| 2026-05-06 14:52 | 51.99683 | -3.90950 | 30003 ft | 461 kts | 281° |
| 2026-05-06 14:53 | 52.00936 | -4.01135 | 29994 ft | 460 kts | 281° |
| 2026-05-06 14:53 | 52.02179 | -4.11314 | 29990 ft | 458 kts | 281° |
| 2026-05-06 14:54 | 52.03404 | -4.21444 | 29998 ft | 456 kts | 280° |
| 2026-05-06 14:54 | 52.04617 | -4.31559 | 30000 ft | 456 kts | 280° |
| 2026-05-06 14:55 | 52.05815 | -4.41617 | 30001 ft | 456 kts | 280° |
| 2026-05-06 14:55 | 52.07011 | -4.51741 | 29999 ft | 456 kts | 280° |
| 2026-05-06 14:56 | 52.08200 | -4.61883 | 29998 ft | 456 kts | 280° |
| 2026-05-06 14:56 | 52.09381 | -4.72030 | 30008 ft | 456 kts | 280° |
| 2026-05-06 14:57 | 52.10553 | -4.82180 | 30007 ft | 456 kts | 280° |
| 2026-05-06 14:57 | 52.11716 | -4.92340 | 30025 ft | 456 kts | 280° |
| 2026-05-06 14:58 | 52.12871 | -5.02500 | 30017 ft | 456 kts | 280° |
| 2026-05-06 14:58 | 52.14526 | -5.12381 | 30014 ft | 455 kts | 298° |
| 2026-05-06 14:58 | 52.16388 | -5.16483 | 30020 ft | 459 kts | 311° |
| 2026-05-06 14:59 | 52.18811 | -5.19888 | 30014 ft | 464 kts | 326° |
| 2026-05-06 14:59 | 52.24653 | -5.24248 | 30011 ft | 463 kts | 330° |
| 2026-05-06 15:00 | 52.30386 | -5.29291 | 30024 ft | 471 kts | 330° |
| 2026-05-06 15:00 | 52.36217 | -5.34121 | 30015 ft | 468 kts | 332° |
| 2026-05-06 15:01 | 52.42038 | -5.38858 | 30021 ft | 465 kts | 333° |
| 2026-05-06 15:01 | 52.47807 | -5.43615 | 30011 ft | 464 kts | 331° |
| 2026-05-06 15:02 | 52.53371 | -5.48839 | 30007 ft | 464 kts | 321° |
| 2026-05-06 15:02 | 52.57923 | -5.56346 | 30019 ft | 465 kts | 306° |
| 2026-05-06 15:03 | 52.61390 | -5.65344 | 30020 ft | 467 kts | 301° |
| 2026-05-06 15:03 | 52.64788 | -5.74491 | 30011 ft | 469 kts | 302° |
| 2026-05-06 15:04 | 52.68331 | -5.83443 | 30013 ft | 465 kts | 302° |
| 2026-05-06 15:04 | 52.71603 | -5.92661 | 30008 ft | 467 kts | 301° |
| 2026-05-06 15:05 | 52.75019 | -6.01838 | 30488 ft | 468 kts | 302° |
| 2026-05-06 15:05 | 52.76740 | -6.06372 | 30975 ft | 464 kts | 303° |
| 2026-05-06 15:05 | 52.78403 | -6.10842 | 31448 ft | 461 kts | 302° |
| 2026-05-06 15:05 | 52.80091 | -6.15322 | 31866 ft | 459 kts | 303° |
| 2026-05-06 15:06 | 52.81785 | -6.19795 | 32016 ft | 462 kts | 303° |
| 2026-05-06 15:06 | 52.85178 | -6.28818 | 31995 ft | 459 kts | 303° |